sensor_id;sensor_type;location;lat;lon;timestamp;P1;durP1;ratioP1;P2;durP2;ratioP2
64244;SDS011;50584;29.058;-110.966;2023-06-22T00:01:03;13.73;;;1.40;;
64244;SDS011;50584;29.058;-110.966;2023-06-22T00:03:28;3.70;;;1.25;;
64244;SDS011;50584;29.058;-110.966;2023-06-22T00:05:54;5.53;;;1.27;;
64244;SDS011;50584;29.058;-110.966;2023-06-22T00:08:21;3.35;;;1.17;;
64244;SDS011;50584;29.058;-110.966;2023-06-22T00:10:47;10.20;;;1.50;;
64244;SDS011;50584;29.058;-110.966;2023-06-22T00:13:13;8.32;;;1.35;;
64244;SDS011;50584;29.058;-110.966;2023-06-22T00:15:40;4.70;;;1.17;;
64244;SDS011;50584;29.058;-110.966;2023-06-22T00:18:06;7.13;;;1.23;;
64244;SDS011;50584;29.058;-110.966;2023-06-22T00:20:32;8.55;;;0.93;;
64244;SDS011;50584;29.058;-110.966;2023-06-22T00:22:58;6.78;;;1.15;;
64244;SDS011;50584;29.058;-110.966;2023-06-22T00:25:25;2.35;;;1.10;;
64244;SDS011;50584;29.058;-110.966;2023-06-22T00:27:51;2.58;;;1.00;;
64244;SDS011;50584;29.058;-110.966;2023-06-22T00:30:17;4.07;;;1.10;;
64244;SDS011;50584;29.058;-110.966;2023-06-22T00:32:43;3.83;;;1.13;;
64244;SDS011;50584;29.058;-110.966;2023-06-22T00:35:09;2.70;;;1.10;;
64244;SDS011;50584;29.058;-110.966;2023-06-22T00:37:38;4.60;;;1.10;;
64244;SDS011;50584;29.058;-110.966;2023-06-22T00:40:11;5.03;;;1.02;;
64244;SDS011;50584;29.058;-110.966;2023-06-22T00:42:37;9.65;;;1.25;;
64244;SDS011;50584;29.058;-110.966;2023-06-22T00:45:04;5.55;;;1.10;;
64244;SDS011;50584;29.058;-110.966;2023-06-22T00:47:30;7.25;;;1.63;;
64244;SDS011;50584;29.058;-110.966;2023-06-22T00:49:56;12.48;;;1.83;;
64244;SDS011;50584;29.058;-110.966;2023-06-22T00:52:22;11.30;;;2.00;;
64244;SDS011;50584;29.058;-110.966;2023-06-22T00:54:52;4.32;;;1.45;;
64244;SDS011;50584;29.058;-110.966;2023-06-22T00:57:19;4.93;;;1.25;;
64244;SDS011;50584;29.058;-110.966;2023-06-22T00:59:45;3.85;;;1.40;;
64244;SDS011;50584;29.058;-110.966;2023-06-22T01:02:13;3.70;;;1.00;;
64244;SDS011;50584;29.058;-110.966;2023-06-22T01:04:39;6.40;;;1.15;;
64244;SDS011;50584;29.058;-110.966;2023-06-22T01:09:35;5.13;;;1.30;;
64244;SDS011;50584;29.058;-110.966;2023-06-22T01:14:35;1.75;;;1.00;;
64244;SDS011;50584;29.058;-110.966;2023-06-22T01:17:03;4.88;;;0.98;;
64244;SDS011;50584;29.058;-110.966;2023-06-22T01:22:06;3.15;;;1.17;;
64244;SDS011;50584;29.058;-110.966;2023-06-22T01:24:41;1.00;;;1.00;;
64244;SDS011;50584;29.058;-110.966;2023-06-22T01:29:42;8.02;;;1.13;;
64244;SDS011;50584;29.058;-110.966;2023-06-22T01:32:09;5.28;;;1.25;;
64244;SDS011;50584;29.058;-110.966;2023-06-22T01:34:36;6.15;;;1.50;;
64244;SDS011;50584;29.058;-110.966;2023-06-22T01:37:03;6.82;;;1.08;;
64244;SDS011;50584;29.058;-110.966;2023-06-22T01:39:29;5.28;;;1.27;;
64244;SDS011;50584;29.058;-110.966;2023-06-22T01:41:55;5.80;;;1.70;;
64244;SDS011;50584;29.058;-110.966;2023-06-22T01:44:21;1.85;;;0.90;;
64244;SDS011;50584;29.058;-110.966;2023-06-22T01:46:47;1.58;;;1.10;;
64244;SDS011;50584;29.058;-110.966;2023-06-22T01:49:14;5.50;;;1.27;;
64244;SDS011;50584;29.058;-110.966;2023-06-22T01:51:40;7.15;;;1.48;;
64244;SDS011;50584;29.058;-110.966;2023-06-22T01:54:06;29.65;;;2.63;;
64244;SDS011;50584;29.058;-110.966;2023-06-22T01:56:33;3.47;;;1.00;;
64244;SDS011;50584;29.058;-110.966;2023-06-22T02:01:27;2.25;;;1.30;;
64244;SDS011;50584;29.058;-110.966;2023-06-22T02:06:56;4.93;;;1.10;;
64244;SDS011;50584;29.058;-110.966;2023-06-22T02:09:23;0.90;;;0.90;;
64244;SDS011;50584;29.058;-110.966;2023-06-22T02:11:51;3.60;;;1.10;;
64244;SDS011;50584;29.058;-110.966;2023-06-22T02:14:20;4.25;;;1.15;;
64244;SDS011;50584;29.058;-110.966;2023-06-22T02:16:46;4.32;;;1.17;;
64244;SDS011;50584;29.058;-110.966;2023-06-22T02:19:12;5.28;;;0.98;;
64244;SDS011;50584;29.058;-110.966;2023-06-22T02:21:37;5.72;;;0.88;;
64244;SDS011;50584;29.058;-110.966;2023-06-22T02:24:04;4.95;;;1.45;;
64244;SDS011;50584;29.058;-110.966;2023-06-22T02:26:29;5.75;;;1.10;;
64244;SDS011;50584;29.058;-110.966;2023-06-22T02:28:55;1.13;;;0.90;;
64244;SDS011;50584;29.058;-110.966;2023-06-22T02:31:21;1.50;;;0.88;;
64244;SDS011;50584;29.058;-110.966;2023-06-22T02:33:47;8.52;;;1.50;;
64244;SDS011;50584;29.058;-110.966;2023-06-22T02:36:13;7.57;;;1.55;;
64244;SDS011;50584;29.058;-110.966;2023-06-22T02:38:43;4.40;;;1.50;;
64244;SDS011;50584;29.058;-110.966;2023-06-22T02:41:16;5.75;;;1.15;;
64244;SDS011;50584;29.058;-110.966;2023-06-22T02:43:45;3.95;;;1.10;;
64244;SDS011;50584;29.058;-110.966;2023-06-22T02:46:11;6.25;;;1.10;;
64244;SDS011;50584;29.058;-110.966;2023-06-22T02:48:38;6.22;;;1.20;;
64244;SDS011;50584;29.058;-110.966;2023-06-22T02:51:04;9.25;;;1.20;;
64244;SDS011;50584;29.058;-110.966;2023-06-22T02:53:30;2.55;;;1.20;;
64244;SDS011;50584;29.058;-110.966;2023-06-22T02:55:56;4.10;;;1.25;;
64244;SDS011;50584;29.058;-110.966;2023-06-22T02:58:21;3.40;;;1.02;;
64244;SDS011;50584;29.058;-110.966;2023-06-22T03:00:47;12.10;;;1.58;;
64244;SDS011;50584;29.058;-110.966;2023-06-22T03:03:13;7.57;;;3.17;;
64244;SDS011;50584;29.058;-110.966;2023-06-22T03:05:39;1.98;;;1.10;;
64244;SDS011;50584;29.058;-110.966;2023-06-22T03:08:05;6.47;;;1.60;;
64244;SDS011;50584;29.058;-110.966;2023-06-22T03:10:31;7.22;;;1.48;;
64244;SDS011;50584;29.058;-110.966;2023-06-22T03:12:57;3.78;;;1.20;;
64244;SDS011;50584;29.058;-110.966;2023-06-22T03:15:23;8.07;;;1.58;;
64244;SDS011;50584;29.058;-110.966;2023-06-22T03:17:48;7.68;;;1.20;;
64244;SDS011;50584;29.058;-110.966;2023-06-22T03:20:14;4.97;;;1.25;;
64244;SDS011;50584;29.058;-110.966;2023-06-22T03:22:40;3.55;;;1.20;;
64244;SDS011;50584;29.058;-110.966;2023-06-22T03:25:09;2.03;;;0.77;;
64244;SDS011;50584;29.058;-110.966;2023-06-22T03:27:39;1.63;;;0.82;;
64244;SDS011;50584;29.058;-110.966;2023-06-22T03:30:07;8.25;;;0.88;;
64244;SDS011;50584;29.058;-110.966;2023-06-22T03:32:33;2.65;;;1.20;;
64244;SDS011;50584;29.058;-110.966;2023-06-22T03:34:59;2.67;;;1.10;;
64244;SDS011;50584;29.058;-110.966;2023-06-22T03:37:28;4.18;;;1.00;;
64244;SDS011;50584;29.058;-110.966;2023-06-22T03:39:54;5.93;;;0.90;;
64244;SDS011;50584;29.058;-110.966;2023-06-22T03:42:20;5.72;;;0.75;;
64244;SDS011;50584;29.058;-110.966;2023-06-22T03:44:46;8.30;;;0.85;;
64244;SDS011;50584;29.058;-110.966;2023-06-22T03:47:12;4.00;;;0.70;;
64244;SDS011;50584;29.058;-110.966;2023-06-22T03:49:38;2.92;;;0.80;;
64244;SDS011;50584;29.058;-110.966;2023-06-22T03:52:04;3.50;;;0.70;;
64244;SDS011;50584;29.058;-110.966;2023-06-22T03:54:30;3.72;;;0.68;;
64244;SDS011;50584;29.058;-110.966;2023-06-22T03:56:57;2.17;;;0.70;;
64244;SDS011;50584;29.058;-110.966;2023-06-22T03:59:23;3.55;;;0.68;;
64244;SDS011;50584;29.058;-110.966;2023-06-22T04:01:48;4.88;;;0.90;;
64244;SDS011;50584;29.058;-110.966;2023-06-22T04:04:15;4.25;;;0.90;;
64244;SDS011;50584;29.058;-110.966;2023-06-22T04:06:41;1.80;;;0.90;;
64244;SDS011;50584;29.058;-110.966;2023-06-22T04:09:07;2.88;;;1.00;;
64244;SDS011;50584;29.058;-110.966;2023-06-22T04:11:33;17.30;;;1.90;;
64244;SDS011;50584;29.058;-110.966;2023-06-22T04:13:59;5.05;;;1.17;;
64244;SDS011;50584;29.058;-110.966;2023-06-22T04:16:25;2.75;;;0.90;;
64244;SDS011;50584;29.058;-110.966;2023-06-22T04:18:50;5.55;;;1.00;;
64244;SDS011;50584;29.058;-110.966;2023-06-22T04:21:16;2.15;;;1.00;;
64244;SDS011;50584;29.058;-110.966;2023-06-22T04:23:42;3.58;;;1.08;;
64244;SDS011;50584;29.058;-110.966;2023-06-22T04:26:08;5.47;;;1.02;;
64244;SDS011;50584;29.058;-110.966;2023-06-22T04:28:34;1.08;;;0.80;;
64244;SDS011;50584;29.058;-110.966;2023-06-22T04:31:01;1.35;;;0.88;;
64244;SDS011;50584;29.058;-110.966;2023-06-22T04:33:27;4.15;;;1.17;;
64244;SDS011;50584;29.058;-110.966;2023-06-22T04:35:54;2.00;;;0.90;;
64244;SDS011;50584;29.058;-110.966;2023-06-22T04:38:22;3.47;;;0.90;;
64244;SDS011;50584;29.058;-110.966;2023-06-22T04:40:48;1.15;;;0.82;;
64244;SDS011;50584;29.058;-110.966;2023-06-22T04:43:14;1.23;;;1.00;;
64244;SDS011;50584;29.058;-110.966;2023-06-22T04:45:40;3.00;;;0.82;;
64244;SDS011;50584;29.058;-110.966;2023-06-22T04:48:06;5.32;;;1.20;;
64244;SDS011;50584;29.058;-110.966;2023-06-22T04:50:31;4.43;;;1.10;;
64244;SDS011;50584;29.058;-110.966;2023-06-22T04:52:57;1.75;;;1.20;;
64244;SDS011;50584;29.058;-110.966;2023-06-22T04:55:23;3.92;;;0.70;;
64244;SDS011;50584;29.058;-110.966;2023-06-22T04:57:51;6.70;;;1.20;;
64244;SDS011;50584;29.058;-110.966;2023-06-22T05:00:17;2.92;;;0.93;;
64244;SDS011;50584;29.058;-110.966;2023-06-22T05:02:43;0.70;;;0.70;;
64244;SDS011;50584;29.058;-110.966;2023-06-22T05:05:10;1.45;;;0.88;;
64244;SDS011;50584;29.058;-110.966;2023-06-22T05:07:47;3.45;;;0.80;;
64244;SDS011;50584;29.058;-110.966;2023-06-22T05:10:16;1.05;;;0.80;;
64244;SDS011;50584;29.058;-110.966;2023-06-22T05:12:41;3.72;;;0.77;;
64244;SDS011;50584;29.058;-110.966;2023-06-22T05:15:07;2.05;;;0.60;;
64244;SDS011;50584;29.058;-110.966;2023-06-22T05:17:34;2.53;;;0.88;;
64244;SDS011;50584;29.058;-110.966;2023-06-22T05:20:00;2.80;;;0.90;;
64244;SDS011;50584;29.058;-110.966;2023-06-22T05:22:26;8.13;;;0.90;;
64244;SDS011;50584;29.058;-110.966;2023-06-22T05:24:52;3.15;;;0.85;;
64244;SDS011;50584;29.058;-110.966;2023-06-22T05:27:17;3.42;;;0.70;;
64244;SDS011;50584;29.058;-110.966;2023-06-22T05:29:43;1.27;;;0.82;;
64244;SDS011;50584;29.058;-110.966;2023-06-22T05:32:09;4.22;;;1.50;;
64244;SDS011;50584;29.058;-110.966;2023-06-22T05:34:35;2.28;;;1.00;;
64244;SDS011;50584;29.058;-110.966;2023-06-22T05:37:02;1.15;;;0.75;;
64244;SDS011;50584;29.058;-110.966;2023-06-22T05:39:27;3.45;;;1.00;;
64244;SDS011;50584;29.058;-110.966;2023-06-22T05:41:53;9.35;;;1.30;;
64244;SDS011;50584;29.058;-110.966;2023-06-22T05:44:19;0.70;;;0.70;;
64244;SDS011;50584;29.058;-110.966;2023-06-22T05:46:45;6.45;;;1.05;;
64244;SDS011;50584;29.058;-110.966;2023-06-22T05:49:12;1.05;;;1.00;;
64244;SDS011;50584;29.058;-110.966;2023-06-22T05:51:38;3.22;;;0.77;;
64244;SDS011;50584;29.058;-110.966;2023-06-22T05:54:04;0.90;;;0.90;;
64244;SDS011;50584;29.058;-110.966;2023-06-22T05:56:30;2.00;;;1.00;;
64244;SDS011;50584;29.058;-110.966;2023-06-22T05:58:56;2.65;;;1.13;;
64244;SDS011;50584;29.058;-110.966;2023-06-22T06:01:21;2.67;;;0.80;;
64244;SDS011;50584;29.058;-110.966;2023-06-22T06:03:47;0.90;;;0.63;;
64244;SDS011;50584;29.058;-110.966;2023-06-22T06:06:14;1.48;;;0.63;;
64244;SDS011;50584;29.058;-110.966;2023-06-22T06:08:40;4.00;;;0.90;;
64244;SDS011;50584;29.058;-110.966;2023-06-22T06:11:06;1.13;;;0.60;;
64244;SDS011;50584;29.058;-110.966;2023-06-22T06:13:32;2.25;;;0.77;;
64244;SDS011;50584;29.058;-110.966;2023-06-22T06:15:58;2.58;;;0.70;;
64244;SDS011;50584;29.058;-110.966;2023-06-22T06:18:24;1.13;;;1.02;;
64244;SDS011;50584;29.058;-110.966;2023-06-22T06:20:50;1.50;;;0.73;;
64244;SDS011;50584;29.058;-110.966;2023-06-22T06:23:16;2.85;;;0.73;;
64244;SDS011;50584;29.058;-110.966;2023-06-22T06:25:42;1.85;;;0.93;;
64244;SDS011;50584;29.058;-110.966;2023-06-22T06:28:07;0.65;;;0.60;;
64244;SDS011;50584;29.058;-110.966;2023-06-22T06:30:33;9.20;;;1.05;;
64244;SDS011;50584;29.058;-110.966;2023-06-22T06:33:02;1.77;;;1.33;;
64244;SDS011;50584;29.058;-110.966;2023-06-22T06:35:29;1.73;;;0.82;;
64244;SDS011;50584;29.058;-110.966;2023-06-22T06:37:55;1.15;;;1.10;;
64244;SDS011;50584;29.058;-110.966;2023-06-22T06:40:22;1.30;;;0.70;;
64244;SDS011;50584;29.058;-110.966;2023-06-22T06:42:48;1.27;;;0.80;;
64244;SDS011;50584;29.058;-110.966;2023-06-22T06:45:18;2.15;;;0.90;;
64244;SDS011;50584;29.058;-110.966;2023-06-22T06:47:44;4.07;;;1.15;;
64244;SDS011;50584;29.058;-110.966;2023-06-22T06:50:10;1.15;;;0.90;;
64244;SDS011;50584;29.058;-110.966;2023-06-22T06:52:36;2.22;;;0.90;;
64244;SDS011;50584;29.058;-110.966;2023-06-22T06:55:02;3.83;;;0.90;;
64244;SDS011;50584;29.058;-110.966;2023-06-22T06:57:29;5.53;;;1.00;;
64244;SDS011;50584;29.058;-110.966;2023-06-22T06:59:55;5.53;;;1.20;;
64244;SDS011;50584;29.058;-110.966;2023-06-22T07:02:22;3.85;;;1.10;;
64244;SDS011;50584;29.058;-110.966;2023-06-22T07:04:47;1.85;;;1.00;;
64244;SDS011;50584;29.058;-110.966;2023-06-22T07:07:14;2.17;;;1.20;;
64244;SDS011;50584;29.058;-110.966;2023-06-22T07:09:39;5.35;;;1.05;;
64244;SDS011;50584;29.058;-110.966;2023-06-22T07:12:05;1.35;;;1.13;;
64244;SDS011;50584;29.058;-110.966;2023-06-22T07:14:31;3.78;;;1.02;;
64244;SDS011;50584;29.058;-110.966;2023-06-22T07:16:57;1.50;;;1.15;;
64244;SDS011;50584;29.058;-110.966;2023-06-22T07:19:27;2.13;;;0.75;;
64244;SDS011;50584;29.058;-110.966;2023-06-22T07:21:53;4.03;;;1.30;;
64244;SDS011;50584;29.058;-110.966;2023-06-22T07:24:19;4.95;;;1.40;;
64244;SDS011;50584;29.058;-110.966;2023-06-22T07:26:46;1.95;;;1.10;;
64244;SDS011;50584;29.058;-110.966;2023-06-22T07:29:13;2.10;;;1.00;;
64244;SDS011;50584;29.058;-110.966;2023-06-22T07:31:39;1.33;;;1.02;;
64244;SDS011;50584;29.058;-110.966;2023-06-22T07:34:06;4.78;;;1.15;;
64244;SDS011;50584;29.058;-110.966;2023-06-22T07:36:32;1.42;;;1.30;;
64244;SDS011;50584;29.058;-110.966;2023-06-22T07:38:58;7.10;;;1.70;;
64244;SDS011;50584;29.058;-110.966;2023-06-22T07:41:23;2.58;;;1.35;;
64244;SDS011;50584;29.058;-110.966;2023-06-22T07:43:49;8.93;;;1.60;;
64244;SDS011;50584;29.058;-110.966;2023-06-22T07:46:16;7.13;;;1.83;;
64244;SDS011;50584;29.058;-110.966;2023-06-22T07:48:41;18.23;;;2.40;;
64244;SDS011;50584;29.058;-110.966;2023-06-22T07:51:09;25.88;;;2.80;;
64244;SDS011;50584;29.058;-110.966;2023-06-22T07:53:38;12.88;;;3.00;;
64244;SDS011;50584;29.058;-110.966;2023-06-22T07:56:05;15.63;;;2.42;;
64244;SDS011;50584;29.058;-110.966;2023-06-22T07:58:32;5.93;;;1.80;;
64244;SDS011;50584;29.058;-110.966;2023-06-22T08:00:58;6.25;;;2.00;;
64244;SDS011;50584;29.058;-110.966;2023-06-22T08:03:24;5.78;;;1.77;;
64244;SDS011;50584;29.058;-110.966;2023-06-22T08:05:50;11.23;;;1.70;;
64244;SDS011;50584;29.058;-110.966;2023-06-22T08:08:16;19.50;;;1.77;;
64244;SDS011;50584;29.058;-110.966;2023-06-22T08:10:42;3.88;;;1.92;;
64244;SDS011;50584;29.058;-110.966;2023-06-22T08:13:08;3.13;;;1.85;;
64244;SDS011;50584;29.058;-110.966;2023-06-22T08:15:33;12.20;;;1.67;;
64244;SDS011;50584;29.058;-110.966;2023-06-22T08:17:59;10.15;;;1.65;;
64244;SDS011;50584;29.058;-110.966;2023-06-22T08:20:26;8.02;;;1.65;;
64244;SDS011;50584;29.058;-110.966;2023-06-22T08:22:52;3.83;;;1.65;;
64244;SDS011;50584;29.058;-110.966;2023-06-22T08:25:18;6.38;;;1.63;;
64244;SDS011;50584;29.058;-110.966;2023-06-22T08:27:45;3.50;;;1.45;;
64244;SDS011;50584;29.058;-110.966;2023-06-22T08:30:12;3.35;;;1.30;;
64244;SDS011;50584;29.058;-110.966;2023-06-22T08:32:38;7.03;;;1.20;;
64244;SDS011;50584;29.058;-110.966;2023-06-22T08:35:04;4.07;;;1.17;;
64244;SDS011;50584;29.058;-110.966;2023-06-22T08:37:31;1.83;;;0.93;;
64244;SDS011;50584;29.058;-110.966;2023-06-22T08:40:01;3.63;;;1.13;;
64244;SDS011;50584;29.058;-110.966;2023-06-22T08:42:30;8.95;;;1.05;;
64244;SDS011;50584;29.058;-110.966;2023-06-22T08:44:56;2.20;;;1.10;;
64244;SDS011;50584;29.058;-110.966;2023-06-22T08:47:22;7.68;;;1.00;;
64244;SDS011;50584;29.058;-110.966;2023-06-22T08:49:48;1.05;;;0.95;;
64244;SDS011;50584;29.058;-110.966;2023-06-22T08:52:14;6.75;;;1.00;;
64244;SDS011;50584;29.058;-110.966;2023-06-22T08:54:40;5.57;;;1.70;;
64244;SDS011;50584;29.058;-110.966;2023-06-22T08:57:06;3.40;;;1.23;;
64244;SDS011;50584;29.058;-110.966;2023-06-22T08:59:32;2.33;;;1.20;;
64244;SDS011;50584;29.058;-110.966;2023-06-22T09:01:57;4.38;;;1.35;;
64244;SDS011;50584;29.058;-110.966;2023-06-22T09:04:24;1.33;;;1.00;;
64244;SDS011;50584;29.058;-110.966;2023-06-22T09:06:49;1.83;;;0.93;;
64244;SDS011;50584;29.058;-110.966;2023-06-22T09:09:17;1.10;;;1.10;;
64244;SDS011;50584;29.058;-110.966;2023-06-22T09:11:43;1.52;;;0.98;;
64244;SDS011;50584;29.058;-110.966;2023-06-22T09:14:10;2.75;;;1.33;;
64244;SDS011;50584;29.058;-110.966;2023-06-22T09:16:36;4.40;;;1.20;;
64244;SDS011;50584;29.058;-110.966;2023-06-22T09:19:02;6.47;;;1.20;;
64244;SDS011;50584;29.058;-110.966;2023-06-22T09:21:27;2.05;;;1.10;;
64244;SDS011;50584;29.058;-110.966;2023-06-22T09:23:54;2.42;;;1.30;;
64244;SDS011;50584;29.058;-110.966;2023-06-22T09:26:20;2.70;;;1.05;;
64244;SDS011;50584;29.058;-110.966;2023-06-22T09:28:46;1.00;;;0.90;;
64244;SDS011;50584;29.058;-110.966;2023-06-22T09:31:12;6.03;;;1.40;;
64244;SDS011;50584;29.058;-110.966;2023-06-22T09:33:39;1.73;;;1.05;;
64244;SDS011;50584;29.058;-110.966;2023-06-22T09:36:06;1.90;;;1.00;;
64244;SDS011;50584;29.058;-110.966;2023-06-22T09:38:35;5.03;;;1.20;;
64244;SDS011;50584;29.058;-110.966;2023-06-22T09:41:00;1.27;;;1.15;;
64244;SDS011;50584;29.058;-110.966;2023-06-22T09:43:27;9.98;;;1.52;;
64244;SDS011;50584;29.058;-110.966;2023-06-22T09:45:52;2.05;;;1.20;;
64244;SDS011;50584;29.058;-110.966;2023-06-22T09:48:18;1.92;;;1.25;;
64244;SDS011;50584;29.058;-110.966;2023-06-22T09:50:44;5.05;;;0.90;;
64244;SDS011;50584;29.058;-110.966;2023-06-22T09:53:10;2.30;;;1.02;;
64244;SDS011;50584;29.058;-110.966;2023-06-22T09:55:35;4.70;;;1.25;;
64244;SDS011;50584;29.058;-110.966;2023-06-22T09:58:01;2.95;;;0.85;;
64244;SDS011;50584;29.058;-110.966;2023-06-22T10:00:27;1.25;;;0.80;;
64244;SDS011;50584;29.058;-110.966;2023-06-22T10:02:53;1.80;;;1.33;;
64244;SDS011;50584;29.058;-110.966;2023-06-22T10:05:18;1.10;;;1.00;;
64244;SDS011;50584;29.058;-110.966;2023-06-22T10:07:44;1.38;;;1.02;;
64244;SDS011;50584;29.058;-110.966;2023-06-22T10:10:10;5.75;;;0.98;;
64244;SDS011;50584;29.058;-110.966;2023-06-22T10:12:40;3.60;;;1.05;;
64244;SDS011;50584;29.058;-110.966;2023-06-22T10:15:06;1.95;;;0.80;;
64244;SDS011;50584;29.058;-110.966;2023-06-22T10:17:32;2.13;;;1.00;;
64244;SDS011;50584;29.058;-110.966;2023-06-22T10:19:58;3.20;;;1.05;;
64244;SDS011;50584;29.058;-110.966;2023-06-22T10:22:24;2.67;;;0.80;;
64244;SDS011;50584;29.058;-110.966;2023-06-22T10:24:49;5.78;;;0.85;;
64244;SDS011;50584;29.058;-110.966;2023-06-22T10:27:15;3.60;;;1.27;;
64244;SDS011;50584;29.058;-110.966;2023-06-22T10:29:41;1.00;;;0.80;;
64244;SDS011;50584;29.058;-110.966;2023-06-22T10:32:07;2.35;;;0.95;;
64244;SDS011;50584;29.058;-110.966;2023-06-22T10:34:33;1.65;;;0.85;;
64244;SDS011;50584;29.058;-110.966;2023-06-22T10:36:59;1.15;;;1.00;;
64244;SDS011;50584;29.058;-110.966;2023-06-22T10:39:24;2.33;;;1.42;;
64244;SDS011;50584;29.058;-110.966;2023-06-22T10:41:50;3.33;;;0.90;;
64244;SDS011;50584;29.058;-110.966;2023-06-22T10:44:16;4.13;;;0.85;;
64244;SDS011;50584;29.058;-110.966;2023-06-22T10:46:42;1.77;;;0.80;;
64244;SDS011;50584;29.058;-110.966;2023-06-22T10:49:08;3.80;;;1.20;;
64244;SDS011;50584;29.058;-110.966;2023-06-22T10:51:34;0.90;;;0.90;;
64244;SDS011;50584;29.058;-110.966;2023-06-22T10:54:00;0.95;;;0.80;;
64244;SDS011;50584;29.058;-110.966;2023-06-22T10:56:25;1.38;;;0.77;;
64244;SDS011;50584;29.058;-110.966;2023-06-22T10:58:51;4.47;;;1.15;;
64244;SDS011;50584;29.058;-110.966;2023-06-22T11:01:17;4.53;;;0.93;;
64244;SDS011;50584;29.058;-110.966;2023-06-22T11:03:43;1.48;;;1.10;;
64244;SDS011;50584;29.058;-110.966;2023-06-22T11:06:09;2.38;;;0.90;;
64244;SDS011;50584;29.058;-110.966;2023-06-22T11:08:34;4.25;;;1.08;;
64244;SDS011;50584;29.058;-110.966;2023-06-22T11:11:00;1.88;;;0.82;;
64244;SDS011;50584;29.058;-110.966;2023-06-22T11:13:26;3.75;;;1.10;;
64244;SDS011;50584;29.058;-110.966;2023-06-22T11:15:52;4.88;;;0.95;;
64244;SDS011;50584;29.058;-110.966;2023-06-22T11:18:17;1.70;;;0.88;;
64244;SDS011;50584;29.058;-110.966;2023-06-22T11:20:43;6.55;;;1.20;;
64244;SDS011;50584;29.058;-110.966;2023-06-22T11:23:09;7.70;;;1.10;;
64244;SDS011;50584;29.058;-110.966;2023-06-22T11:25:37;1.90;;;0.90;;
64244;SDS011;50584;29.058;-110.966;2023-06-22T11:28:03;7.22;;;1.05;;
64244;SDS011;50584;29.058;-110.966;2023-06-22T11:30:29;10.73;;;1.10;;
64244;SDS011;50584;29.058;-110.966;2023-06-22T11:32:56;8.65;;;1.10;;
64244;SDS011;50584;29.058;-110.966;2023-06-22T11:35:22;4.53;;;0.95;;
64244;SDS011;50584;29.058;-110.966;2023-06-22T11:37:48;3.90;;;1.13;;
64244;SDS011;50584;29.058;-110.966;2023-06-22T11:40:14;2.38;;;1.08;;
64244;SDS011;50584;29.058;-110.966;2023-06-22T11:42:39;3.53;;;1.20;;
64244;SDS011;50584;29.058;-110.966;2023-06-22T11:45:06;6.40;;;1.10;;
64244;SDS011;50584;29.058;-110.966;2023-06-22T11:47:32;4.28;;;1.23;;
64244;SDS011;50584;29.058;-110.966;2023-06-22T11:49:57;6.50;;;1.10;;
64244;SDS011;50584;29.058;-110.966;2023-06-22T11:52:23;5.70;;;1.30;;
64244;SDS011;50584;29.058;-110.966;2023-06-22T11:54:49;8.20;;;1.48;;
64244;SDS011;50584;29.058;-110.966;2023-06-22T11:57:15;3.50;;;1.20;;
64244;SDS011;50584;29.058;-110.966;2023-06-22T11:59:40;8.75;;;1.20;;
64244;SDS011;50584;29.058;-110.966;2023-06-22T12:02:06;3.80;;;1.13;;
64244;SDS011;50584;29.058;-110.966;2023-06-22T12:04:34;5.20;;;1.23;;
64244;SDS011;50584;29.058;-110.966;2023-06-22T12:07:00;4.43;;;1.00;;
64244;SDS011;50584;29.058;-110.966;2023-06-22T12:09:25;6.20;;;1.48;;
64244;SDS011;50584;29.058;-110.966;2023-06-22T12:11:51;4.45;;;1.00;;
64244;SDS011;50584;29.058;-110.966;2023-06-22T12:14:17;1.70;;;1.20;;
64244;SDS011;50584;29.058;-110.966;2023-06-22T12:16:43;15.05;;;1.63;;
64244;SDS011;50584;29.058;-110.966;2023-06-22T12:19:09;8.10;;;1.35;;
64244;SDS011;50584;29.058;-110.966;2023-06-22T12:21:36;8.88;;;1.63;;
64244;SDS011;50584;29.058;-110.966;2023-06-22T12:24:02;10.05;;;1.48;;
64244;SDS011;50584;29.058;-110.966;2023-06-22T12:26:28;4.82;;;1.75;;
64244;SDS011;50584;29.058;-110.966;2023-06-22T12:28:54;9.07;;;1.88;;
64244;SDS011;50584;29.058;-110.966;2023-06-22T12:31:19;4.13;;;1.67;;
64244;SDS011;50584;29.058;-110.966;2023-06-22T12:33:45;9.75;;;1.83;;
64244;SDS011;50584;29.058;-110.966;2023-06-22T12:36:11;8.05;;;1.27;;
64244;SDS011;50584;29.058;-110.966;2023-06-22T12:38:37;11.45;;;1.35;;
64244;SDS011;50584;29.058;-110.966;2023-06-22T12:41:02;7.70;;;1.40;;
64244;SDS011;50584;29.058;-110.966;2023-06-22T12:43:28;5.50;;;1.38;;
64244;SDS011;50584;29.058;-110.966;2023-06-22T12:45:54;4.05;;;1.50;;
64244;SDS011;50584;29.058;-110.966;2023-06-22T12:48:21;8.07;;;1.60;;
64244;SDS011;50584;29.058;-110.966;2023-06-22T12:50:47;8.60;;;1.80;;
64244;SDS011;50584;29.058;-110.966;2023-06-22T12:53:13;5.68;;;2.63;;
64244;SDS011;50584;29.058;-110.966;2023-06-22T12:55:39;7.50;;;1.25;;
64244;SDS011;50584;29.058;-110.966;2023-06-22T12:58:05;8.85;;;1.42;;
64244;SDS011;50584;29.058;-110.966;2023-06-22T13:00:30;7.65;;;1.50;;
64244;SDS011;50584;29.058;-110.966;2023-06-22T13:02:56;5.55;;;1.30;;
64244;SDS011;50584;29.058;-110.966;2023-06-22T13:05:22;4.95;;;1.30;;
64244;SDS011;50584;29.058;-110.966;2023-06-22T13:07:48;8.52;;;1.30;;
64244;SDS011;50584;29.058;-110.966;2023-06-22T13:10:14;10.23;;;1.38;;
64244;SDS011;50584;29.058;-110.966;2023-06-22T13:12:39;7.20;;;1.30;;
64244;SDS011;50584;29.058;-110.966;2023-06-22T13:15:05;5.07;;;1.13;;
64244;SDS011;50584;29.058;-110.966;2023-06-22T13:17:31;2.75;;;1.00;;
64244;SDS011;50584;29.058;-110.966;2023-06-22T13:19:57;17.92;;;1.70;;
64244;SDS011;50584;29.058;-110.966;2023-06-22T13:22:33;9.10;;;1.90;;
64244;SDS011;50584;29.058;-110.966;2023-06-22T13:25:05;16.13;;;3.08;;
64244;SDS011;50584;29.058;-110.966;2023-06-22T13:27:31;6.18;;;1.80;;
64244;SDS011;50584;29.058;-110.966;2023-06-22T13:29:57;11.30;;;2.10;;
64244;SDS011;50584;29.058;-110.966;2023-06-22T13:32:22;14.20;;;2.55;;
64244;SDS011;50584;29.058;-110.966;2023-06-22T13:34:48;31.75;;;9.98;;
64244;SDS011;50584;29.058;-110.966;2023-06-22T13:37:14;20.38;;;4.50;;
64244;SDS011;50584;29.058;-110.966;2023-06-22T13:39:40;38.20;;;7.35;;
64244;SDS011;50584;29.058;-110.966;2023-06-22T13:42:06;17.42;;;7.50;;
64244;SDS011;50584;29.058;-110.966;2023-06-22T13:44:32;422.80;;;179.52;;
64244;SDS011;50584;29.058;-110.966;2023-06-22T13:46:57;340.83;;;149.57;;
64244;SDS011;50584;29.058;-110.966;2023-06-22T13:49:23;286.45;;;125.10;;
64244;SDS011;50584;29.058;-110.966;2023-06-22T13:51:49;38.55;;;16.98;;
64244;SDS011;50584;29.058;-110.966;2023-06-22T13:54:16;162.57;;;68.80;;
64244;SDS011;50584;29.058;-110.966;2023-06-22T13:56:42;108.35;;;47.42;;
64244;SDS011;50584;29.058;-110.966;2023-06-22T13:59:07;35.15;;;13.75;;
64244;SDS011;50584;29.058;-110.966;2023-06-22T14:01:35;16.92;;;8.52;;
64244;SDS011;50584;29.058;-110.966;2023-06-22T14:04:01;35.13;;;14.82;;
64244;SDS011;50584;29.058;-110.966;2023-06-22T14:06:30;5.07;;;2.40;;
64244;SDS011;50584;29.058;-110.966;2023-06-22T14:08:55;7.57;;;4.10;;
64244;SDS011;50584;29.058;-110.966;2023-06-22T14:11:21;8.02;;;2.10;;
64244;SDS011;50584;29.058;-110.966;2023-06-22T14:13:47;6.97;;;1.58;;
64244;SDS011;50584;29.058;-110.966;2023-06-22T14:16:13;10.43;;;2.25;;